Terminal Aerodrome Forecast
Issued by NWS

Home | Current Version | Previous Version | Text Only | Print | Product List | Glossary On
Versions: 1 2 3 4 5 6 7 8 9 10 11 12 13 14 15 16 17 18 19 20 21 22 23 24 25 26 27 28 29 30 31 32
259
FTUS43 KDLH 190537
TAFBRD
TAF
KBRD 190537Z 1906/2006 VRB03KT 6SM BR SCT130
     FM190800 VRB02KT 4SM BR SCT015 SCT150
      TEMPO 1908/1912 2SM BR SCT007
     FM191400 13007KT P6SM BKN150
     FM200300 12010KT 6SM BR SCT015 BKN200=

USA.gov is the U.S. government's official web portal to all federal, state and local government web resources and services.